METAR Data
IDs: Format: Raw Decoded Include TAF

Data at: 1020 UTC 30 Oct 2020

EDSB 300950Z 22009KT 9999 BKN030 BKN036 OVC045 14/11 Q1025
EDSB 300920Z 23007KT 9999 FEW027 BKN031 OVC037 14/11 Q1025
EDSB 300850Z 21011KT 9999 OVC030 13/11 Q1024
EDSB 300820Z 20013KT 9999 -SHRA FEW037 BKN045 13/11 Q1024
EDSB 300750Z 20014KT 9999 -SHRA FEW026 BKN045 13/11 Q1024
EDSB 300720Z 21014KT 9999 -SHRA BKN028 OVC044 13/11 Q1024
EDSB 300650Z 21010KT 9999 -SHRA BKN027 BKN039 OVC047 13/11 Q1023
EDSB 300620Z 20013KT 9999 -SHRA OVC044 13/11 Q1023
EDSB 300550Z 20015KT 8000 -RA FEW017 BKN020 OVC044 12/11 Q1023
EDSB 300520Z 20016KT 9999 BKN031 OVC047 13/11 Q1023
EDSB 300450Z 20014KT 9999 SCT033 BKN042 OVC051 13/10 Q1022
EDSB 300420Z AUTO 20013KT 9999 // OVC029/// 13/10 Q1022
EDSB 300350Z AUTO 20012KT 9999 // BKN029/// OVC037/// 13/10 Q1022
EDSB 300320Z AUTO 21012KT 9999 // OVC028/// 13/10 Q1022
EDSB 300250Z AUTO 21012KT 9999 // OVC029/// 13/10 Q1022
EDSB 300220Z AUTO 21013KT 9999 // OVC028/// 13/10 Q1022
EDSB 300150Z AUTO 20014KT 9999 // OVC031/// 13/10 Q1022
EDSB 300120Z AUTO 20015KT 9999 // SCT026/// BKN031/// OVC036/// 13/10 Q1022
EDSB 300050Z AUTO 20014KT 9999 // FEW023/// OVC029/// 13/10 Q1022
EDSB 300020Z AUTO 21012KT 9999 // OVC025/// 12/10 Q1022
EDSB 292350Z AUTO 21011KT 9999 // OVC027/// 12/10 Q1022
EDSB 292320Z AUTO 20013KT 9999 // OVC027/// 12/10 Q1022
EDSB 292250Z AUTO 20014KT 9999 // BKN029/// OVC037/// 12/10 Q1022
EDSB 292220Z AUTO 20012KT 9999 // BKN029/// OVC043/// 12/10 Q1023
EDSB 292150Z 20012KT 9999 -RA OVC028 12/10 Q1023
EDSB 292120Z 20011KT 9999 -RA OVC030 12/10 Q1023
EDSB 292050Z 21009KT 9999 -RA BKN029 OVC038 11/10 Q1023
EDSB 292020Z 23006KT 200V260 9999 -RA OVC029 11/10 Q1023
EDSB 291950Z 21009KT 9999 -RA BKN028 OVC041 11/10 Q1022
EDSB 291920Z 20009KT 7000 -RA OVC035 11/10 Q1022
EDSB 291850Z 20010KT 8000 RA SCT039 BKN048 11/10 Q1022
EDSB 291820Z 20011KT 8000 RA SCT038 BKN049 11/10 Q1022
EDSB 291750Z 20009KT 8000 RA SCT032 BKN049 11/09 Q1022
EDSB 291720Z 20010KT 8000 -RA FEW036 OVC048 12/09 Q1022
EDSB 291650Z 20010KT 8000 -RA FEW039 OVC49 12/09 Q1022
EDSB 291620Z 20008KT 8000 -RA BKN038 BKN049 12/09 Q1022
EDSB 291550Z 22009KT 9999 -RA FEW038 OVC044 13/09 Q1022
EDSB 291520Z 22010KT 9999 -RA BKN037 13/09 Q1022
EDSB 291450Z 21007KT 9999 -RA OVC037 13/09 Q1021
EDSB 291420Z 22010KT 9999 FEW031 SCT036 BKN044 13/08 Q1021
EDSB 291350Z 22009KT 200V260 9999 SCT032 BKN041 14/09 Q1021
EDSB 291320Z 22011KT 9999 SCT035 BKN043 13/09 Q1021
EDSB 291250Z 22011KT 9999 FEW030 BKN045 13/09 Q1021
EDSB 291220Z 22012KT 9999 BKN033 OVC041 13/09 Q1021
EDSB 291150Z 21012KT 9999 BKN031 BKN038 OVC044 13/09 Q1021
EDSB 291120Z 22011KT 9999 BKN034 OVC044 13/09 Q1021
EDSB 291050Z 22008KT 9999 BKN029 OVC035 12/09 Q1021

TAF EDSB 300500Z 3006/3106 21012KT 9999 BKN040
  BECMG 3016/3018 20005KT
  PROB40
  TEMPO 3102/3106 0400 FG VV001